Winona Lake, Indiana
Current Conditions -  °F | °C
As of 5:55 AM on Friday 19 Dec 2014 (Local Time) from KASW Reporting Station
Overcast Overcast  
Wind Chill: 27°   Ceiling: 1700
Heat Index: 27°   Visibility: 7mi
Dew Point: 23°   Wind: 3mph
Humidity: 86%   Direction: 260°W
Pressure: 30.24"   Gusts: NA
Location:  41.23°N, 85.82°W
Report Text: KASW 191055Z AUTO 26003KT 7SM BKN017 OVC025 M03/M05 A3024 RMK AO2
Loading
Personal Weather Stations






























Interactive Weather Map New forecast layout! Learn more

10-Day Weather Forecast

Advertisements
Track Severe Weather on mobile